createdAt,value
2018-05-03T00:00:40.696Z,1001.40
2018-05-03T00:01:46.218Z,1001.47
2018-05-03T00:02:51.724Z,1001.43
2018-05-03T00:03:57.239Z,1001.43
2018-05-03T00:05:02.750Z,1001.43
2018-05-03T00:06:08.264Z,1001.39
2018-05-03T00:07:13.786Z,1001.40
2018-05-03T00:08:19.306Z,1001.44
2018-05-03T00:09:24.807Z,1001.47
2018-05-03T00:10:30.317Z,1001.46
2018-05-03T00:11:35.831Z,1001.46
2018-05-03T00:12:41.343Z,1001.47
2018-05-03T00:13:46.863Z,1001.50
2018-05-03T00:14:52.383Z,1001.51
2018-05-03T00:15:57.886Z,1001.51
2018-05-03T00:17:03.405Z,1001.50
2018-05-03T00:18:08.968Z,1001.52
2018-05-03T00:19:14.434Z,1001.50
2018-05-03T00:20:20.025Z,1001.50
2018-05-03T00:21:25.457Z,1001.51
2018-05-03T00:22:30.966Z,1001.49
2018-05-03T00:23:36.478Z,1001.50
2018-05-03T00:24:41.991Z,1001.51
2018-05-03T00:25:47.504Z,1001.50
2018-05-03T00:26:53.019Z,1001.50
2018-05-03T00:27:58.541Z,1001.50
2018-05-03T00:29:04.044Z,1001.55
2018-05-03T00:30:09.558Z,1001.59
2018-05-03T00:31:15.074Z,1001.53
2018-05-03T00:32:20.583Z,1001.51
2018-05-03T00:33:26.101Z,1001.50
2018-05-03T00:34:31.617Z,1001.51
2018-05-03T00:35:37.136Z,1001.50
2018-05-03T00:36:42.640Z,1001.54
2018-05-03T00:37:48.153Z,1001.54
2018-05-03T00:38:53.667Z,1001.58
2018-05-03T00:39:59.175Z,1001.62
2018-05-03T00:41:04.691Z,1001.60
2018-05-03T00:42:10.211Z,1001.61
2018-05-03T00:43:15.718Z,1001.62
2018-05-03T00:44:21.234Z,1001.64
2018-05-03T00:45:26.746Z,1001.61
2018-05-03T00:46:32.258Z,1001.64
2018-05-03T00:47:37.788Z,1001.63
2018-05-03T00:48:43.285Z,1001.66
2018-05-03T00:49:48.794Z,1001.74
2018-05-03T00:50:54.306Z,1001.67
2018-05-03T00:51:59.821Z,1001.66
2018-05-03T00:53:05.438Z,1001.63
2018-05-03T00:54:10.847Z,1001.64
2018-05-03T00:55:16.370Z,1001.67
2018-05-03T00:56:21.876Z,1001.70
2018-05-03T00:57:27.386Z,1001.66
2018-05-03T00:58:32.907Z,1001.76
2018-05-03T00:59:38.417Z,1001.75
2018-05-03T01:00:43.925Z,1001.78
2018-05-03T01:01:49.446Z,1001.76
2018-05-03T01:02:54.961Z,1001.76
2018-05-03T01:04:00.464Z,1001.78
2018-05-03T01:05:05.991Z,1001.79
2018-05-03T01:06:11.497Z,1001.86
2018-05-03T01:07:17.033Z,1001.86
2018-05-03T01:08:22.526Z,1001.84
2018-05-03T01:09:28.036Z,1001.84
2018-05-03T01:10:33.545Z,1001.88
2018-05-03T01:11:39.059Z,1001.90
2018-05-03T01:12:44.566Z,1001.94
2018-05-03T01:13:50.082Z,1001.91
2018-05-03T01:14:55.598Z,1001.89
2018-05-03T01:16:01.129Z,1001.90
2018-05-03T01:17:06.630Z,1001.93
2018-05-03T01:18:12.765Z,1002.02
2018-05-03T01:19:17.655Z,1002.04
2018-05-03T01:20:23.167Z,1002.02
2018-05-03T01:21:28.718Z,1002.00
2018-05-03T01:22:34.200Z,1002.02
2018-05-03T01:23:39.701Z,1002.03
2018-05-03T01:24:45.214Z,1002.03
2018-05-03T01:25:50.724Z,1002.01
2018-05-03T01:26:56.236Z,1002.00
2018-05-03T01:28:01.760Z,1001.99
2018-05-03T01:29:07.271Z,1001.99
2018-05-03T01:30:12.779Z,1002.01
2018-05-03T01:31:18.290Z,1002.01
2018-05-03T01:32:23.802Z,1002.04
2018-05-03T01:33:29.317Z,1002.01
2018-05-03T01:34:34.834Z,1002.00
2018-05-03T01:35:40.343Z,1002.05
2018-05-03T01:36:45.856Z,1002.07
2018-05-03T01:37:51.388Z,1002.09
2018-05-03T01:38:56.881Z,1002.05
2018-05-03T01:40:02.397Z,1002.05
2018-05-03T01:41:07.915Z,1002.07
2018-05-03T01:42:13.425Z,1002.13
2018-05-03T01:43:18.931Z,1002.12
2018-05-03T01:44:24.446Z,1002.11
2018-05-03T01:45:29.955Z,1002.13
2018-05-03T01:46:35.477Z,1002.18
2018-05-03T01:47:40.984Z,1002.24
2018-05-03T01:48:46.509Z,1002.24
2018-05-03T01:49:52.020Z,1002.24
2018-05-03T01:50:57.534Z,1002.22
2018-05-03T01:52:03.038Z,1002.20
2018-05-03T01:53:08.556Z,1002.22
2018-05-03T01:54:14.159Z,1002.23
2018-05-03T01:55:19.577Z,1002.26
2018-05-03T01:56:25.121Z,1002.31
2018-05-03T01:57:30.598Z,1002.33
2018-05-03T01:58:36.118Z,1002.35
2018-05-03T01:59:41.622Z,1002.38
2018-05-03T02:00:47.136Z,1002.38
2018-05-03T02:01:52.649Z,1002.41
2018-05-03T02:02:58.166Z,1002.40
2018-05-03T02:04:03.675Z,1002.46
2018-05-03T02:05:09.194Z,1002.44
2018-05-03T02:06:14.702Z,1002.45
2018-05-03T02:07:20.214Z,1002.46
2018-05-03T02:08:25.726Z,1002.45
2018-05-03T02:09:31.242Z,1002.48
2018-05-03T02:10:36.759Z,1002.46
2018-05-03T02:11:42.280Z,1002.49
2018-05-03T02:12:47.786Z,1002.52
2018-05-03T02:13:53.291Z,1002.54
2018-05-03T02:14:58.811Z,1002.54
2018-05-03T02:16:04.327Z,1002.59
2018-05-03T02:17:09.836Z,1002.61
2018-05-03T02:18:15.344Z,1002.60
2018-05-03T02:19:20.856Z,1002.63
2018-05-03T02:20:26.381Z,1002.67
2018-05-03T02:21:31.886Z,1002.71
2018-05-03T02:22:37.400Z,1002.71
2018-05-03T02:23:42.991Z,1002.76
2018-05-03T02:24:48.424Z,1002.77
2018-05-03T02:25:54.001Z,1002.77
2018-05-03T02:26:59.454Z,1002.81
2018-05-03T02:28:04.965Z,1002.79
2018-05-03T02:29:10.476Z,1002.82
2018-05-03T02:30:15.988Z,1002.82
2018-05-03T02:31:21.509Z,1002.78
2018-05-03T02:32:27.016Z,1002.83
2018-05-03T02:33:32.525Z,1002.85
2018-05-03T02:34:38.049Z,1002.88
2018-05-03T02:35:43.556Z,1002.88
2018-05-03T02:36:49.074Z,1002.87
2018-05-03T02:37:54.576Z,1002.88
2018-05-03T02:39:00.091Z,1002.89
2018-05-03T02:40:05.609Z,1002.89
2018-05-03T02:41:11.122Z,1002.89
2018-05-03T02:42:16.637Z,1002.90
2018-05-03T02:43:22.147Z,1002.90
2018-05-03T02:44:27.662Z,1002.97
2018-05-03T02:45:33.173Z,1002.99
2018-05-03T02:46:38.686Z,1003.03
2018-05-03T02:47:44.205Z,1003.01
2018-05-03T02:48:49.718Z,1003.04
2018-05-03T02:49:55.226Z,1003.06
2018-05-03T02:51:00.734Z,1003.08
2018-05-03T02:52:06.254Z,1003.10
2018-05-03T02:53:11.758Z,1003.10
2018-05-03T02:54:17.277Z,1003.10
2018-05-03T02:55:22.787Z,1003.14
2018-05-03T02:56:28.300Z,1003.12
2018-05-03T02:57:33.810Z,1003.19
2018-05-03T02:58:39.328Z,1003.21
2018-05-03T02:59:44.839Z,1003.26
2018-05-03T03:00:50.352Z,1003.24
2018-05-03T03:01:55.871Z,1003.28
2018-05-03T03:03:01.378Z,1003.27
2018-05-03T03:04:06.968Z,1003.27
2018-05-03T03:05:12.404Z,1003.24
2018-05-03T03:06:17.930Z,1003.24
2018-05-03T03:07:23.454Z,1003.24
2018-05-03T03:08:28.941Z,1003.26
2018-05-03T03:09:34.563Z,1003.28
2018-05-03T03:10:39.970Z,1003.31
2018-05-03T03:11:45.486Z,1003.29
2018-05-03T03:12:51.000Z,1003.29
2018-05-03T03:13:56.510Z,1003.29
2018-05-03T03:15:02.022Z,1003.29
2018-05-03T03:16:07.536Z,1003.31
2018-05-03T03:17:13.044Z,1003.31
2018-05-03T03:18:18.560Z,1003.33
2018-05-03T03:19:24.077Z,1003.34
2018-05-03T03:20:29.590Z,1003.36
2018-05-03T03:21:35.100Z,1003.40
2018-05-03T03:22:40.612Z,1003.44
2018-05-03T03:23:46.135Z,1003.40
2018-05-03T03:24:51.647Z,1003.43
2018-05-03T03:25:57.151Z,1003.42
2018-05-03T03:27:02.662Z,1003.39
2018-05-03T03:28:08.179Z,1003.41
2018-05-03T03:29:13.697Z,1003.42
2018-05-03T03:30:19.206Z,1003.45
2018-05-03T03:31:24.719Z,1003.45
2018-05-03T03:32:30.227Z,1003.43
2018-05-03T03:33:35.745Z,1003.46
2018-05-03T03:34:41.329Z,1003.44
2018-05-03T03:35:46.771Z,1003.47
2018-05-03T03:36:52.283Z,1003.47
2018-05-03T03:37:57.794Z,1003.49
2018-05-03T03:39:03.307Z,1003.50
2018-05-03T03:40:08.826Z,1003.54
2018-05-03T03:41:14.340Z,1003.48
2018-05-03T03:42:19.849Z,1003.48
2018-05-03T03:43:25.358Z,1003.47
2018-05-03T03:44:30.874Z,1003.54
2018-05-03T03:45:36.388Z,1003.52
2018-05-03T03:46:41.904Z,1003.54
2018-05-03T03:47:47.414Z,1003.50
2018-05-03T03:48:52.929Z,1003.47
2018-05-03T03:49:58.447Z,1003.50
2018-05-03T03:51:03.960Z,1003.50
2018-05-03T03:52:09.470Z,1003.50
2018-05-03T03:53:15.058Z,1003.45
2018-05-03T03:54:20.494Z,1003.43
2018-05-03T03:55:26.006Z,1003.39
2018-05-03T03:56:31.516Z,1003.38
2018-05-03T03:57:37.033Z,1003.41
2018-05-03T03:58:42.544Z,1003.43
2018-05-03T03:59:48.061Z,1003.49
2018-05-03T04:00:53.576Z,1003.47
2018-05-03T04:01:59.086Z,1003.54
2018-05-03T04:03:04.607Z,1003.54
2018-05-03T04:04:10.110Z,1003.57
2018-05-03T04:05:15.626Z,1003.56
2018-05-03T04:06:21.136Z,1003.59
2018-05-03T04:07:26.650Z,1003.61
2018-05-03T04:08:32.171Z,1003.60
2018-05-03T04:09:37.686Z,1003.62
2018-05-03T04:10:43.194Z,1003.62
2018-05-03T04:11:48.706Z,1003.63
2018-05-03T04:12:54.222Z,1003.62
2018-05-03T04:13:59.730Z,1003.62
2018-05-03T04:15:05.245Z,1003.64
2018-05-03T04:16:10.756Z,1003.61
2018-05-03T04:17:16.280Z,1003.65
2018-05-03T04:18:21.795Z,1003.67
2018-05-03T04:19:27.296Z,1003.74
2018-05-03T04:20:32.814Z,1003.77
2018-05-03T04:21:38.326Z,1003.82
2018-05-03T04:22:43.847Z,1003.89
2018-05-03T04:23:49.350Z,1003.91
2018-05-03T04:24:54.864Z,1003.94
2018-05-03T04:26:00.383Z,1003.95
2018-05-03T04:27:05.918Z,1003.95
2018-05-03T04:28:11.419Z,1003.96
2018-05-03T04:29:16.920Z,1003.95
2018-05-03T04:30:22.432Z,1004.01
2018-05-03T04:31:27.972Z,1004.05
2018-05-03T04:32:33.466Z,1004.08
2018-05-03T04:33:38.968Z,1004.15
2018-05-03T04:34:44.491Z,1004.17
2018-05-03T04:35:50.001Z,1004.14
2018-05-03T04:36:55.508Z,1004.15
2018-05-03T04:38:01.032Z,1004.15
2018-05-03T04:39:06.537Z,1004.19
2018-05-03T04:40:12.052Z,1004.18
2018-05-03T04:41:17.563Z,1004.24
2018-05-03T04:42:23.075Z,1004.27
2018-05-03T04:43:28.599Z,1004.28
2018-05-03T04:44:34.102Z,1004.32
2018-05-03T04:45:39.611Z,1004.32
2018-05-03T04:46:45.128Z,1004.35
2018-05-03T04:47:50.645Z,1004.34
2018-05-03T04:48:56.156Z,1004.38
2018-05-03T04:50:01.667Z,1004.38
2018-05-03T04:51:07.187Z,1004.39
2018-05-03T04:52:12.696Z,1004.40
2018-05-03T04:53:18.205Z,1004.47
2018-05-03T04:54:23.727Z,1004.46
2018-05-03T04:55:29.237Z,1004.47
2018-05-03T04:56:34.747Z,1004.49
2018-05-03T04:57:40.263Z,1004.50
2018-05-03T04:58:45.778Z,1004.50
2018-05-03T04:59:51.284Z,1004.52
2018-05-03T05:00:56.813Z,1004.54
2018-05-03T05:02:02.317Z,1004.57
2018-05-03T05:03:07.825Z,1004.64
2018-05-03T05:04:13.340Z,1004.68
2018-05-03T05:05:18.854Z,1004.66
2018-05-03T05:06:24.369Z,1004.71
2018-05-03T05:07:29.989Z,1004.70
2018-05-03T05:08:35.407Z,1004.73
2018-05-03T05:09:40.903Z,1004.69
2018-05-03T05:10:46.413Z,1004.73
2018-05-03T05:11:51.927Z,1004.77
2018-05-03T05:12:57.450Z,1004.77
2018-05-03T05:14:02.957Z,1004.85
2018-05-03T05:15:08.469Z,1004.81
2018-05-03T05:16:13.989Z,1004.83
2018-05-03T05:17:19.492Z,1004.89
2018-05-03T05:18:25.013Z,1004.88
2018-05-03T05:19:30.523Z,1004.85
2018-05-03T05:20:36.028Z,1004.87
2018-05-03T05:21:41.548Z,1004.92
2018-05-03T05:22:47.065Z,1004.91
2018-05-03T05:23:52.785Z,1004.97
2018-05-03T05:24:58.082Z,1005.01
2018-05-03T05:26:03.595Z,1005.06
2018-05-03T05:27:09.107Z,1005.06
2018-05-03T05:28:14.624Z,1005.07
2018-05-03T05:29:20.137Z,1005.08
2018-05-03T05:30:25.653Z,1005.09
2018-05-03T05:31:31.156Z,1005.15
2018-05-03T05:32:36.671Z,1005.19
2018-05-03T05:33:42.186Z,1005.19
2018-05-03T05:34:47.701Z,1005.18
2018-05-03T05:35:53.213Z,1005.21
2018-05-03T05:36:58.722Z,1005.22
2018-05-03T05:38:04.235Z,1005.25
2018-05-03T05:39:09.747Z,1005.27
2018-05-03T05:40:15.272Z,1005.31
2018-05-03T05:41:20.779Z,1005.34
2018-05-03T05:42:26.289Z,1005.34
2018-05-03T05:43:31.801Z,1005.33
2018-05-03T05:44:37.316Z,1005.38
2018-05-03T05:45:42.825Z,1005.35
2018-05-03T05:46:48.341Z,1005.33
2018-05-03T05:47:53.853Z,1005.37
2018-05-03T05:48:59.404Z,1005.40
2018-05-03T05:50:04.883Z,1005.39
2018-05-03T05:51:10.587Z,1005.40
2018-05-03T05:52:15.902Z,1005.41
2018-05-03T05:53:21.413Z,1005.45
2018-05-03T05:54:26.933Z,1005.42
2018-05-03T05:55:32.445Z,1005.51
2018-05-03T05:56:38.043Z,1005.47
2018-05-03T05:57:43.468Z,1005.52
2018-05-03T05:58:48.988Z,1005.53
2018-05-03T05:59:54.493Z,1005.56
2018-05-03T06:01:00.012Z,1005.57
2018-05-03T06:02:05.523Z,1005.61
2018-05-03T06:03:11.028Z,1005.55
2018-05-03T06:04:16.591Z,1005.58
2018-05-03T06:05:22.057Z,1005.63
2018-05-03T06:06:27.570Z,1005.61
2018-05-03T06:07:33.084Z,1005.66
2018-05-03T06:08:38.593Z,1005.65
2018-05-03T06:09:44.115Z,1005.64
2018-05-03T06:10:49.624Z,1005.66
2018-05-03T06:11:55.135Z,1005.66
2018-05-03T06:13:00.643Z,1005.69
2018-05-03T06:14:06.156Z,1005.70
2018-05-03T06:15:11.680Z,1005.70
2018-05-03T06:16:17.187Z,1005.73
2018-05-03T06:17:22.699Z,1005.75
2018-05-03T06:18:28.213Z,1005.75
2018-05-03T06:19:33.723Z,1005.73
2018-05-03T06:20:39.247Z,1005.75
2018-05-03T06:21:44.750Z,1005.76
2018-05-03T06:22:50.262Z,1005.78
2018-05-03T06:23:55.774Z,1005.79
2018-05-03T06:25:01.288Z,1005.80
2018-05-03T06:26:06.835Z,1005.86
2018-05-03T06:27:12.314Z,1005.88
2018-05-03T06:28:17.825Z,1005.85
2018-05-03T06:29:23.340Z,1005.84
2018-05-03T06:30:28.853Z,1005.89
2018-05-03T06:31:34.367Z,1005.88
2018-05-03T06:32:39.876Z,1005.90
2018-05-03T06:33:45.393Z,1005.92
2018-05-03T06:34:50.914Z,1005.91
2018-05-03T06:35:56.419Z,1005.93
2018-05-03T06:37:01.927Z,1005.95
2018-05-03T06:38:07.441Z,1005.97
2018-05-03T06:39:12.956Z,1006.00
2018-05-03T06:40:18.468Z,1005.95
2018-05-03T06:41:23.980Z,1005.95
2018-05-03T06:42:29.497Z,1006.00
2018-05-03T06:43:35.008Z,1006.05
2018-05-03T06:44:40.596Z,1005.98
2018-05-03T06:45:46.042Z,1006.07
2018-05-03T06:46:51.545Z,1006.06
2018-05-03T06:47:57.073Z,1006.03
2018-05-03T06:49:02.579Z,1006.02
2018-05-03T06:50:08.088Z,1006.05
2018-05-03T06:51:13.599Z,1006.00
2018-05-03T06:52:19.217Z,1006.08
2018-05-03T06:53:24.629Z,1006.07
2018-05-03T06:54:30.202Z,1006.08
2018-05-03T06:55:35.648Z,1006.11
2018-05-03T06:56:41.162Z,1006.08
2018-05-03T06:57:46.678Z,1006.06
2018-05-03T06:58:52.187Z,1006.14
2018-05-03T06:59:57.702Z,1006.13
2018-05-03T07:01:03.217Z,1006.17
2018-05-03T07:02:08.727Z,1006.23
2018-05-03T07:03:14.241Z,1006.19
2018-05-03T07:04:19.776Z,1006.16
2018-05-03T07:05:25.266Z,1006.18
2018-05-03T07:06:30.777Z,1006.22
2018-05-03T07:07:36.298Z,1006.21
2018-05-03T07:08:41.803Z,1006.24
2018-05-03T07:09:47.317Z,1006.19
2018-05-03T07:10:52.830Z,1006.21
2018-05-03T07:11:58.343Z,1006.22
2018-05-03T07:13:03.865Z,1006.19
2018-05-03T07:14:09.374Z,1006.21
2018-05-03T07:15:14.885Z,1006.25
2018-05-03T07:16:20.445Z,1006.23
2018-05-03T07:17:25.907Z,1006.27
2018-05-03T07:18:31.420Z,1006.24
2018-05-03T07:19:36.950Z,1006.28
2018-05-03T07:20:42.448Z,1006.27
2018-05-03T07:21:48.096Z,1006.25
2018-05-03T07:22:53.489Z,1006.29
2018-05-03T07:23:58.987Z,1006.30
2018-05-03T07:25:04.504Z,1006.29
2018-05-03T07:26:10.019Z,1006.28
2018-05-03T07:27:15.554Z,1006.37
2018-05-03T07:28:21.058Z,1006.36
2018-05-03T07:29:26.599Z,1006.37
2018-05-03T07:30:32.066Z,1006.42
2018-05-03T07:31:37.581Z,1006.45
2018-05-03T07:32:43.100Z,1006.50
2018-05-03T07:33:48.606Z,1006.45
2018-05-03T07:34:54.124Z,1006.44
2018-05-03T07:35:59.637Z,1006.45
2018-05-03T07:37:05.148Z,1006.47
2018-05-03T07:38:10.658Z,1006.46
2018-05-03T07:39:16.177Z,1006.42
2018-05-03T07:40:21.683Z,1006.46
2018-05-03T07:41:27.219Z,1006.52
2018-05-03T07:42:32.718Z,1006.49
2018-05-03T07:43:38.226Z,1006.53
2018-05-03T07:44:43.757Z,1006.55
2018-05-03T07:45:49.258Z,1006.51
2018-05-03T07:46:54.765Z,1006.56
2018-05-03T07:48:00.279Z,1006.59
2018-05-03T07:49:05.797Z,1006.61
2018-05-03T07:50:11.309Z,1006.61
2018-05-03T07:51:16.821Z,1006.59
2018-05-03T07:52:22.331Z,1006.65
2018-05-03T07:53:27.846Z,1006.69
2018-05-03T07:54:33.368Z,1006.70
2018-05-03T07:55:38.877Z,1006.69
2018-05-03T07:56:44.471Z,1006.71
2018-05-03T07:57:49.925Z,1006.72
2018-05-03T07:58:55.415Z,1006.75
2018-05-03T08:00:00.928Z,1006.73
2018-05-03T08:01:06.449Z,1006.79
2018-05-03T08:02:11.979Z,1006.77
2018-05-03T08:03:17.467Z,1006.80
2018-05-03T08:04:22.994Z,1006.80
2018-05-03T08:05:28.502Z,1006.81
2018-05-03T08:06:34.008Z,1006.83
2018-05-03T08:07:39.522Z,1006.83
2018-05-03T08:08:45.036Z,1006.84
2018-05-03T08:09:50.563Z,1006.82
2018-05-03T08:10:56.098Z,1006.88
2018-05-03T08:12:01.604Z,1006.86
2018-05-03T08:13:07.103Z,1006.92
2018-05-03T08:14:12.608Z,1006.92
2018-05-03T08:15:18.117Z,1006.94
2018-05-03T08:16:23.638Z,1006.95
2018-05-03T08:17:29.148Z,1006.97
2018-05-03T08:18:34.657Z,1007.00
2018-05-03T08:19:40.174Z,1007.01
2018-05-03T08:20:45.686Z,1007.01
2018-05-03T08:21:51.204Z,1007.06
2018-05-03T08:22:56.720Z,1007.09
2018-05-03T08:24:02.227Z,1007.09
2018-05-03T08:25:07.742Z,1007.08
2018-05-03T08:26:13.256Z,1007.09
2018-05-03T08:27:18.777Z,1007.12
2018-05-03T08:28:24.288Z,1007.12
2018-05-03T08:29:29.797Z,1007.12
2018-05-03T08:30:35.316Z,1007.12
2018-05-03T08:31:40.911Z,1007.15
2018-05-03T08:32:46.353Z,1007.14
2018-05-03T08:33:51.858Z,1007.19
2018-05-03T08:34:57.435Z,1007.15
2018-05-03T08:36:02.898Z,1007.23
2018-05-03T08:37:08.398Z,1007.18
2018-05-03T08:38:13.907Z,1007.23
2018-05-03T08:39:19.424Z,1007.30
2018-05-03T08:40:24.939Z,1007.29
2018-05-03T08:41:30.454Z,1007.31
2018-05-03T08:42:35.968Z,1007.33
2018-05-03T08:43:41.491Z,1007.36
2018-05-03T08:44:47.006Z,1007.38
2018-05-03T08:45:52.522Z,1007.40
2018-05-03T08:46:58.098Z,1007.39
2018-05-03T08:48:03.536Z,1007.37
2018-05-03T08:49:09.067Z,1007.42
2018-05-03T08:50:14.574Z,1007.42
2018-05-03T08:51:20.079Z,1007.47
2018-05-03T08:52:25.602Z,1007.48
2018-05-03T08:53:31.117Z,1007.52
2018-05-03T08:54:36.625Z,1007.53
2018-05-03T08:55:42.141Z,1007.52
2018-05-03T08:56:47.648Z,1007.49
2018-05-03T08:57:53.165Z,1007.52
2018-05-03T08:58:58.678Z,1007.50
2018-05-03T09:00:04.194Z,1007.51
2018-05-03T09:01:09.717Z,1007.48
2018-05-03T09:02:15.224Z,1007.53
2018-05-03T09:03:20.738Z,1007.53
2018-05-03T09:04:26.259Z,1007.54
2018-05-03T09:05:31.762Z,1007.55
2018-05-03T09:06:37.284Z,1007.56
2018-05-03T09:07:42.830Z,1007.57
2018-05-03T09:08:48.307Z,1007.52
2018-05-03T09:09:53.831Z,1007.49
2018-05-03T09:10:59.337Z,1007.51
2018-05-03T09:12:04.851Z,1007.51
2018-05-03T09:13:10.369Z,1007.55
2018-05-03T09:14:15.885Z,1007.58
2018-05-03T09:15:21.397Z,1007.58
2018-05-03T09:16:26.907Z,1007.55
2018-05-03T09:17:32.428Z,1007.57
2018-05-03T09:18:37.941Z,1007.59
2018-05-03T09:19:43.454Z,1007.61
2018-05-03T09:20:48.967Z,1007.58
2018-05-03T09:21:54.488Z,1007.56
2018-05-03T09:22:59.999Z,1007.55
2018-05-03T09:24:05.521Z,1007.57
2018-05-03T09:25:11.026Z,1007.56
2018-05-03T09:26:16.545Z,1007.54
2018-05-03T09:27:22.070Z,1007.49
2018-05-03T09:28:27.568Z,1007.56
2018-05-03T09:29:33.086Z,1007.59
2018-05-03T09:30:38.598Z,1007.62
2018-05-03T09:31:44.116Z,1007.65
2018-05-03T09:32:49.711Z,1007.71
2018-05-03T09:33:55.146Z,1007.70
2018-05-03T09:35:00.666Z,1007.67
2018-05-03T09:36:06.169Z,1007.66
2018-05-03T09:37:11.688Z,1007.67
2018-05-03T09:38:17.205Z,1007.63
2018-05-03T09:39:22.715Z,1007.72
2018-05-03T09:40:28.244Z,1007.70
2018-05-03T09:41:33.755Z,1007.72
2018-05-03T09:42:39.257Z,1007.76
2018-05-03T09:43:44.772Z,1007.72
2018-05-03T09:44:50.312Z,1007.81
2018-05-03T09:45:55.807Z,1007.79
2018-05-03T09:47:01.319Z,1007.83
2018-05-03T09:48:06.852Z,1007.75
2018-05-03T09:49:12.348Z,1007.80
2018-05-03T09:50:17.861Z,1007.79
2018-05-03T09:51:23.376Z,1007.79
2018-05-03T09:52:28.914Z,1007.82
2018-05-03T09:53:34.410Z,1007.78
2018-05-03T09:54:39.933Z,1007.79
2018-05-03T09:55:45.448Z,1007.78
2018-05-03T09:56:50.958Z,1007.77
2018-05-03T09:57:56.470Z,1007.81
2018-05-03T09:59:01.987Z,1007.82
2018-05-03T10:00:07.498Z,1007.84
2018-05-03T10:01:13.020Z,1007.81
2018-05-03T10:02:18.530Z,1007.87
2018-05-03T10:03:24.045Z,1007.89
2018-05-03T10:04:29.558Z,1007.84
2018-05-03T10:05:35.074Z,1007.86
2018-05-03T10:06:40.600Z,1007.86
2018-05-03T10:07:46.100Z,1007.90
2018-05-03T10:08:51.620Z,1007.85
2018-05-03T10:09:57.130Z,1007.83
2018-05-03T10:11:02.647Z,1007.81
2018-05-03T10:12:08.163Z,1007.82
2018-05-03T10:13:13.856Z,1007.86
2018-05-03T10:14:19.197Z,1007.86
2018-05-03T10:15:24.716Z,1007.86
2018-05-03T10:16:30.226Z,1007.86
2018-05-03T10:17:35.741Z,1007.87
2018-05-03T10:18:41.253Z,1007.86
2018-05-03T10:19:46.769Z,1007.87
2018-05-03T10:20:52.288Z,1007.92
2018-05-03T10:21:57.829Z,1007.92
2018-05-03T10:23:03.326Z,1007.93
2018-05-03T10:24:08.839Z,1007.91
2018-05-03T10:25:14.350Z,1007.93
2018-05-03T10:26:19.874Z,1007.93
2018-05-03T10:27:25.384Z,1007.93
2018-05-03T10:28:30.896Z,1007.94
2018-05-03T10:29:36.410Z,1007.90
2018-05-03T10:30:41.936Z,1007.90
2018-05-03T10:31:47.451Z,1007.90
2018-05-03T10:32:52.957Z,1007.86
2018-05-03T10:33:58.475Z,1007.87
2018-05-03T10:35:03.997Z,1007.86
2018-05-03T10:36:09.695Z,1007.85
2018-05-03T10:37:15.019Z,1007.83
2018-05-03T10:38:20.534Z,1007.86
2018-05-03T10:39:26.072Z,1007.89
2018-05-03T10:40:31.574Z,1007.88
2018-05-03T10:41:37.094Z,1007.85
2018-05-03T10:42:42.597Z,1007.89
2018-05-03T10:43:48.114Z,1007.90
2018-05-03T10:44:53.627Z,1007.87
2018-05-03T10:45:59.151Z,1007.84
2018-05-03T10:47:04.666Z,1007.83
2018-05-03T10:48:10.175Z,1007.82
2018-05-03T10:49:15.692Z,1007.81
2018-05-03T10:50:21.208Z,1007.86
2018-05-03T10:51:26.725Z,1007.85
2018-05-03T10:52:32.240Z,1007.87
2018-05-03T10:53:37.754Z,1007.87
2018-05-03T10:54:43.272Z,1007.87
2018-05-03T10:55:48.799Z,1007.88
2018-05-03T10:56:54.306Z,1007.85
2018-05-03T10:57:59.825Z,1007.85
2018-05-03T10:59:05.337Z,1007.84
2018-05-03T11:00:10.847Z,1007.85
2018-05-03T11:01:16.362Z,1007.86
2018-05-03T11:02:21.878Z,1007.84
2018-05-03T11:03:27.393Z,1007.82
2018-05-03T11:04:32.911Z,1007.81
2018-05-03T11:05:38.474Z,1007.78
2018-05-03T11:06:43.941Z,1007.75
2018-05-03T11:07:49.457Z,1007.74
2018-05-03T11:08:54.972Z,1007.78
2018-05-03T11:10:00.493Z,1007.78
2018-05-03T11:11:06.056Z,1007.81
2018-05-03T11:12:11.524Z,1007.80
2018-05-03T11:13:17.037Z,1007.86
2018-05-03T11:14:22.550Z,1007.84
2018-05-03T11:15:28.079Z,1007.80
2018-05-03T11:16:33.581Z,1007.84
2018-05-03T11:17:39.099Z,1007.84
2018-05-03T11:18:44.617Z,1007.86
2018-05-03T11:19:50.134Z,1007.88
2018-05-03T11:20:55.648Z,1007.84
2018-05-03T11:22:01.165Z,1007.84
2018-05-03T11:23:06.677Z,1007.88
2018-05-03T11:24:12.205Z,1007.91
2018-05-03T11:25:17.713Z,1007.89
2018-05-03T11:26:23.245Z,1007.89
2018-05-03T11:27:28.745Z,1007.90
2018-05-03T11:28:34.261Z,1007.86
2018-05-03T11:29:39.790Z,1007.87
2018-05-03T11:30:45.287Z,1007.80
2018-05-03T11:31:50.809Z,1007.86
2018-05-03T11:32:56.319Z,1007.81
2018-05-03T11:34:01.836Z,1007.87
2018-05-03T11:35:07.365Z,1007.81
2018-05-03T11:36:12.880Z,1007.80
2018-05-03T11:37:18.395Z,1007.78
2018-05-03T11:38:23.908Z,1007.85
2018-05-03T11:39:29.421Z,1007.86
2018-05-03T11:40:34.944Z,1007.79
2018-05-03T11:41:40.456Z,1007.84
2018-05-03T11:42:46.002Z,1007.88
2018-05-03T11:43:51.491Z,1007.88
2018-05-03T11:44:57.006Z,1007.91
2018-05-03T11:46:02.526Z,1007.92
2018-05-03T11:47:08.044Z,1007.94
2018-05-03T11:48:13.563Z,1007.95
2018-05-03T11:49:19.088Z,1007.92
2018-05-03T11:50:24.587Z,1007.92
2018-05-03T11:51:30.110Z,1007.89
2018-05-03T11:52:35.620Z,1007.89
2018-05-03T11:53:41.134Z,1007.87
2018-05-03T11:54:46.658Z,1007.90
2018-05-03T11:55:52.168Z,1007.89
2018-05-03T11:56:57.687Z,1007.89
2018-05-03T11:58:03.209Z,1007.92
2018-05-03T11:59:08.734Z,1007.97
2018-05-03T12:00:14.235Z,1007.89
2018-05-03T12:01:19.749Z,1007.95
2018-05-03T12:02:25.310Z,1007.91
2018-05-03T12:03:30.786Z,1007.92
2018-05-03T12:04:36.300Z,1007.92
2018-05-03T12:05:41.816Z,1007.96
2018-05-03T12:06:47.338Z,1007.95
2018-05-03T12:07:52.853Z,1007.98
2018-05-03T12:08:58.377Z,1008.00
2018-05-03T12:10:03.905Z,1008.02
2018-05-03T12:11:09.412Z,1007.98
2018-05-03T12:12:14.924Z,1007.98
2018-05-03T12:13:20.433Z,1008.00
2018-05-03T12:14:25.960Z,1007.96
2018-05-03T12:15:31.470Z,1007.94
2018-05-03T12:16:36.988Z,1008.00
2018-05-03T12:17:42.507Z,1007.98
2018-05-03T12:18:48.027Z,1008.02
2018-05-03T12:19:53.534Z,1008.02
2018-05-03T12:20:59.057Z,1008.08
2018-05-03T12:22:04.585Z,1008.07
2018-05-03T12:23:10.086Z,1008.06
2018-05-03T12:24:15.604Z,1008.11
2018-05-03T12:25:21.137Z,1008.09
2018-05-03T12:26:26.638Z,1008.12
2018-05-03T12:27:32.155Z,1008.09
2018-05-03T12:28:37.681Z,1008.08
2018-05-03T12:29:43.198Z,1008.06
2018-05-03T12:30:48.705Z,1008.08
2018-05-03T12:31:54.224Z,1008.07
2018-05-03T12:32:59.755Z,1008.09
2018-05-03T12:34:05.260Z,1008.01
2018-05-03T12:35:10.772Z,1008.05
2018-05-03T12:36:16.290Z,1008.07
2018-05-03T12:37:21.805Z,1008.10
2018-05-03T12:38:27.326Z,1008.11
2018-05-03T12:39:32.844Z,1008.12
2018-05-03T12:40:38.362Z,1008.14
2018-05-03T12:41:43.875Z,1008.17
2018-05-03T12:42:49.397Z,1008.14
2018-05-03T12:43:54.914Z,1008.16
2018-05-03T12:45:00.447Z,1008.21
2018-05-03T12:46:05.951Z,1008.21
2018-05-03T12:47:11.462Z,1008.22
2018-05-03T12:48:16.980Z,1008.24
2018-05-03T12:49:22.493Z,1008.28
2018-05-03T12:50:28.020Z,1008.25
2018-05-03T12:51:33.534Z,1008.23
2018-05-03T12:52:39.047Z,1008.25
2018-05-03T12:53:44.566Z,1008.22
2018-05-03T12:54:50.087Z,1008.24
2018-05-03T12:55:55.605Z,1008.15
2018-05-03T12:57:01.150Z,1008.19
2018-05-03T12:58:06.636Z,1008.13
2018-05-03T12:59:12.156Z,1008.20
2018-05-03T13:00:17.668Z,1008.16
2018-05-03T13:01:23.195Z,1008.20
2018-05-03T13:02:28.705Z,1008.14
2018-05-03T13:03:34.217Z,1008.18
2018-05-03T13:04:39.737Z,1008.19
2018-05-03T13:05:45.264Z,1008.16
2018-05-03T13:06:50.772Z,1008.17
2018-05-03T13:07:56.287Z,1008.16
2018-05-03T13:09:01.806Z,1008.14
2018-05-03T13:10:07.327Z,1008.15
2018-05-03T13:11:12.839Z,1008.17
2018-05-03T13:12:18.370Z,1008.18